Time;durP1;ratioP1;P1;durP2;ratioP2;P2;SDS_P1;SDS_P2;PMS_P1;PMS_P2;Temp;Humidity;BMP_temperature;BMP_pressure;BME280_temperature;BME280_humidity;BME280_pressure;Samples;Min_cycle;Max_cycle;Signal;HPM_P1;HPM_P2
2022/07/10 00:00:05;;;;;;;15.80;10.32;;;;;;;15.42;77.95;93861.34;5004576;28;20236;-78
2022/07/10 00:02:31;;;;;;;11.18;9.52;;;;;;;15.46;77.71;93861.47;5004464;28;20022;-78
2022/07/10 00:04:56;;;;;;;11.10;9.70;;;;;;;15.43;77.64;93864.84;5004375;28;20029;-78
2022/07/10 00:07:22;;;;;;;14.00;8.88;;;;;;;15.43;77.82;93873.69;5004388;28;20081;-78
2022/07/10 00:09:47;;;;;;;14.73;8.48;;;;;;;15.45;77.38;93862.59;5004462;28;20025;-78
2022/07/10 00:12:13;;;;;;;13.98;9.40;;;;;;;15.46;77.57;93861.47;5004071;28;20026;-78
2022/07/10 00:14:38;;;;;;;14.80;8.38;;;;;;;15.43;77.77;93870.22;5004213;28;20030;-78
2022/07/10 00:17:03;;;;;;;12.85;8.82;;;;;;;15.47;77.50;93875.66;5004298;28;20037;-77
2022/07/10 00:19:29;;;;;;;11.75;8.60;;;;;;;15.44;77.64;93861.78;5004066;28;20030;-76
2022/07/10 00:21:55;;;;;;;12.85;9.18;;;;;;;15.38;77.67;93865.84;5004230;28;20026;-77
2022/07/10 00:24:20;;;;;;;12.52;9.20;;;;;;;15.41;77.68;93862.50;5002866;28;20033;-76
2022/07/10 00:26:47;;;;;;;12.95;9.20;;;;;;;15.36;77.98;93857.34;5004255;28;20022;-77
2022/07/10 00:29:13;;;;;;;14.32;9.50;;;;;;;15.39;78.35;93862.06;5004028;28;20022;-76
2022/07/10 00:31:38;;;;;;;15.25;8.75;;;;;;;15.40;78.33;93858.22;5003915;28;20036;-76
2022/07/10 00:34:04;;;;;;;22.23;9.77;;;;;;;15.37;78.10;93850.09;5003898;28;20045;-77
2022/07/10 00:36:29;;;;;;;14.52;9.23;;;;;;;15.41;77.31;93849.06;5003876;28;20033;-77
2022/07/10 00:38:55;;;;;;;18.00;8.85;;;;;;;15.34;77.83;93843.50;5003832;28;20084;-77
2022/07/10 00:41:20;;;;;;;12.85;9.07;;;;;;;15.21;77.95;93845.47;5003756;28;20038;-76
2022/07/10 00:43:53;;;;;;;13.32;9.32;;;;;;;15.13;78.34;93843.72;5002835;28;20268;-76
2022/07/10 00:46:22;;;;;;;13.90;8.98;;;;;;;15.20;78.30;93843.13;5003838;28;20060;-77
2022/07/10 00:48:48;;;;;;;13.82;9.07;;;;;;;15.19;78.00;93841.56;5003689;28;20034;-76
2022/07/10 00:51:16;;;;;;;10.40;7.95;;;;;;;15.13;77.70;93835.66;5003618;28;20033;-76
2022/07/10 00:53:44;;;;;;;14.30;8.50;;;;;;;15.19;77.88;93836.19;5003686;28;20034;-76
2022/07/10 00:56:10;;;;;;;12.48;9.40;;;;;;;15.17;78.03;93854.56;5003633;28;20134;-77
2022/07/10 00:58:36;;;;;;;10.40;8.10;;;;;;;15.04;77.85;93835.81;5003569;28;20101;-77
2022/07/10 01:01:02;;;;;;;14.45;9.20;;;;;;;15.13;78.05;93837.56;5003361;28;20355;-77
2022/07/10 01:03:28;;;;;;;12.50;9.05;;;;;;;15.15;77.90;93830.72;5003369;28;20022;-77
2022/07/10 01:05:53;;;;;;;11.27;7.90;;;;;;;15.19;77.57;93830.81;5003481;28;20096;-78
2022/07/10 01:08:19;;;;;;;13.98;8.90;;;;;;;15.18;77.70;93829.25;5003406;28;20021;-78
2022/07/10 01:10:47;;;;;;;12.57;9.02;;;;;;;15.18;77.32;93829.25;5003665;28;20018;-77
2022/07/10 01:13:13;;;;;;;10.65;8.60;;;;;;;15.13;77.95;93832.19;5003450;28;20219;-77
2022/07/10 01:15:39;;;;;;;13.65;9.07;;;;;;;15.05;78.41;93834.66;5003542;28;20030;-77
2022/07/10 01:18:04;;;;;;;16.65;8.57;;;;;;;15.08;78.64;93829.75;5003271;28;20197;-77
2022/07/10 01:20:32;;;;;;;12.10;8.80;;;;;;;15.09;78.40;93842.06;5003219;28;20090;-77
2022/07/10 01:22:57;;;;;;;13.15;8.35;;;;;;;15.06;78.60;93838.13;5003320;28;20235;-78
2022/07/10 01:25:23;;;;;;;20.13;9.32;;;;;;;15.04;78.43;93838.50;5003403;28;20022;-78
2022/07/10 01:27:48;;;;;;;12.07;8.02;;;;;;;15.10;78.38;93828.28;5003609;28;20366;-77
2022/07/10 01:30:13;;;;;;;12.63;8.32;;;;;;;15.06;78.35;93832.75;5003369;28;20212;-78
2022/07/10 01:32:40;;;;;;;11.10;8.70;;;;;;;15.10;77.97;93820.25;5003213;28;20335;-78
2022/07/10 01:35:07;;;;;;;12.05;8.38;;;;;;;15.14;77.43;93818.44;5003082;28;20050;-78
2022/07/10 01:37:32;;;;;;;9.93;7.63;;;;;;;15.14;77.32;93806.91;5003264;28;20328;-78
2022/07/10 01:39:57;;;;;;;15.90;7.63;;;;;;;15.11;77.22;93810.28;5003045;28;20054;-77
2022/07/10 01:42:23;;;;;;;10.30;8.10;;;;;;;15.14;77.74;93809.59;5003272;28;20030;-77
2022/07/10 01:44:48;;;;;;;14.93;8.55;;;;;;;15.15;76.92;93806.56;5003226;28;20320;-76
2022/07/10 01:47:14;;;;;;;17.45;7.65;;;;;;;15.13;77.01;93799.97;5003961;28;20037;-76
2022/07/10 01:49:39;;;;;;;11.82;8.20;;;;;;;15.18;76.81;93805.88;5006928;28;20034;-77
2022/07/10 01:52:05;;;;;;;10.13;7.97;;;;;;;15.17;76.93;93801.63;5006991;28;20045;-76
2022/07/10 01:54:30;;;;;;;11.95;6.85;;;;;;;15.17;76.91;93808.91;5006730;28;20030;-76
2022/07/10 01:56:55;;;;;;;9.40;7.05;;;;;;;15.14;77.05;93804.22;5006997;28;20114;-76
2022/07/10 01:59:21;;;;;;;11.48;8.02;;;;;;;15.11;76.81;93804.91;5006781;28;20026;-76
2022/07/10 02:01:46;;;;;;;9.18;7.07;;;;;;;15.17;77.08;93792.81;5006863;28;20201;-76
2022/07/10 02:06:56;;;;;;;10.35;7.30;;;;;;;15.09;77.10;93804.47;5006596;28;20092;-76
2022/07/10 02:09:21;;;;;;;12.15;7.78;;;;;;;15.07;77.32;93798.66;5006639;28;20030;-76
2022/07/10 02:11:47;;;;;;;9.57;7.50;;;;;;;15.08;76.79;93794.84;5006528;28;20029;-77
2022/07/10 02:14:13;;;;;;;11.60;7.65;;;;;;;15.08;76.94;93794.84;5006542;28;20312;-77
2022/07/10 02:16:38;;;;;;;14.30;7.88;;;;;;;15.08;77.20;93781.44;5006401;28;20089;-77
2022/07/10 02:19:04;;;;;;;13.98;7.63;;;;;;;15.01;77.27;93792.75;5006346;28;20037;-77
2022/07/10 02:21:30;;;;;;;9.25;7.90;;;;;;;15.01;77.21;93792.75;5006100;28;20018;-77
2022/07/10 02:23:55;;;;;;;13.13;7.68;;;;;;;14.91;77.70;93790.56;5006538;28;20026;-77
2022/07/10 02:26:21;;;;;;;17.13;10.13;;;;;;;14.85;77.76;93796.16;5006464;28;20358;-77
2022/07/10 02:28:46;;;;;;;11.73;7.43;;;;;;;14.84;77.85;93788.47;5006316;28;20024;-78
2022/07/10 02:31:12;;;;;;;10.95;8.35;;;;;;;14.75;78.19;93795.88;5004972;28;20216;-78
2022/07/10 02:33:37;;;;;;;9.27;7.60;;;;;;;14.79;78.32;93786.78;5006266;28;20049;-78
2022/07/10 02:36:04;;;;;;;20.08;8.05;;;;;;;14.76;77.98;93779.44;5005046;28;20030;-77
2022/07/10 02:38:29;;;;;;;9.60;7.75;;;;;;;14.74;78.00;93784.38;5005960;28;20022;-77
2022/07/10 02:40:55;;;;;;;11.73;8.00;;;;;;;14.71;78.25;93785.03;5005760;28;20058;-76
2022/07/10 02:43:20;;;;;;;14.95;8.20;;;;;;;14.70;78.32;93794.22;5006194;28;20224;-77
2022/07/10 02:45:46;;;;;;;10.57;7.90;;;;;;;14.70;78.06;93794.22;5005941;28;20029;-77
2022/07/10 02:48:11;;;;;;;12.98;8.18;;;;;;;14.63;78.00;93800.16;5004666;28;20037;-77
2022/07/10 02:50:37;;;;;;;11.38;7.28;;;;;;;14.63;77.86;93794.00;5005736;28;20018;-77
2022/07/10 02:53:03;;;;;;;10.60;8.10;;;;;;;14.69;77.96;93802.59;5005943;28;20316;-77
2022/07/10 02:55:31;;;;;;;9.70;7.47;;;;;;;14.71;77.75;93800.34;5005785;28;20049;-78
2022/07/10 02:57:57;;;;;;;10.00;8.13;;;;;;;14.70;77.83;93814.91;5005571;28;20328;-77
2022/07/10 03:00:22;;;;;;;12.32;8.20;;;;;;;14.72;78.19;93809.97;5004357;28;20058;-78
2022/07/10 03:02:48;;;;;;;11.13;8.65;;;;;;;14.72;77.91;93812.66;5005954;28;20026;-79
2022/07/10 03:05:13;;;;;;;11.32;6.88;;;;;;;14.74;78.03;93818.47;5005679;28;20034;-79
2022/07/10 03:07:39;;;;;;;17.25;8.15;;;;;;;14.74;77.98;93810.41;5005518;28;20272;-78
2022/07/10 03:10:05;;;;;;;15.45;8.07;;;;;;;14.79;78.33;93812.84;5005458;28;20022;-77
2022/07/10 03:12:30;;;;;;;12.60;7.70;;;;;;;14.83;77.55;93806.44;5005405;28;20026;-77
2022/07/10 03:14:56;;;;;;;10.80;8.68;;;;;;;14.81;77.69;93822.09;5005521;28;20034;-77
2022/07/10 03:17:21;;;;;;;18.02;8.07;;;;;;;14.87;77.89;93819.97;5005467;28;20178;-76
2022/07/10 03:19:46;;;;;;;15.02;8.48;;;;;;;14.74;78.25;93823.84;5005179;28;20109;-76
2022/07/10 03:22:12;;;;;;;17.65;8.63;;;;;;;14.75;78.47;93830.75;5005311;28;20216;-76
2022/07/10 03:24:37;;;;;;;12.57;8.07;;;;;;;14.84;78.38;93829.50;5005270;28;20395;-76
2022/07/10 03:27:05;;;;;;;13.70;8.35;;;;;;;14.86;78.18;93834.53;5005172;28;20029;-76
2022/07/10 03:29:30;;;;;;;9.63;7.93;;;;;;;14.85;78.54;93830.28;5005012;28;20022;-76
2022/07/10 03:31:56;;;;;;;15.25;8.52;;;;;;;14.87;77.84;93830.72;5004845;28;20030;-76
2022/07/10 03:34:21;;;;;;;10.55;8.00;;;;;;;14.87;77.78;93829.94;5005122;28;20041;-75
2022/07/10 03:36:47;;;;;;;8.70;7.53;;;;;;;14.91;77.91;93828.91;5004969;28;20033;-75
2022/07/10 03:39:12;;;;;;;14.18;8.05;;;;;;;15.00;77.76;93828.75;5004796;28;20564;-75
2022/07/10 03:41:38;;;;;;;12.98;8.18;;;;;;;15.06;77.30;93827.38;5004780;28;20351;-75
2022/07/10 03:44:05;;;;;;;17.00;9.13;;;;;;;15.11;77.51;93818.34;5004648;28;20281;-75
2022/07/10 03:46:31;;;;;;;10.40;7.75;;;;;;;15.11;77.33;93819.09;5004824;28;20252;-75
2022/07/10 03:48:56;;;;;;;17.83;7.78;;;;;;;15.18;77.16;93815.81;5004778;28;20026;-75
2022/07/10 03:51:21;;;;;;;10.18;7.70;;;;;;;15.20;77.03;93821.63;5004842;28;20224;-75
2022/07/10 03:53:47;;;;;;;13.35;7.82;;;;;;;15.17;76.78;93817.75;5004769;28;20022;-75
2022/07/10 03:57:53;;;;;;;12.73;8.27;;;;;;;15.11;77.09;93818.34;5003252;28;20109;-75
2022/07/10 03:58:58;;;;;;;15.60;9.18;;;;;;;15.15;76.94;93808.47;5004471;28;20084;-75
2022/07/10 04:01:23;;;;;;;13.73;8.30;;;;;;;15.07;77.06;93812.84;5004646;28;20101;-75
2022/07/10 04:03:49;;;;;;;10.25;7.85;;;;;;;15.07;76.80;93815.53;5004300;28;20034;-75
2022/07/10 04:06:14;;;;;;;9.15;7.13;;;;;;;15.12;76.82;93814.50;5004186;28;20058;-76
2022/07/10 04:08:39;;;;;;;18.42;7.75;;;;;;;15.18;76.69;93807.78;5004265;28;20049;-76
2022/07/10 04:11:05;;;;;;;11.45;7.00;;;;;;;15.19;76.17;93812.03;5003821;28;20312;-76
2022/07/10 04:13:30;;;;;;;12.27;7.20;;;;;;;15.16;76.46;93810.81;5004104;28;20021;-76
2022/07/10 04:15:55;;;;;;;9.63;7.47;;;;;;;15.27;76.58;93816.47;5004167;28;20030;-76
2022/07/10 04:18:21;;;;;;;8.68;7.03;;;;;;;15.25;75.82;93807.97;5004168;28;20375;-76
2022/07/10 04:20:46;;;;;;;9.18;7.05;;;;;;;15.29;75.88;93798.09;5003906;28;20018;-76
2022/07/10 04:23:12;;;;;;;9.80;7.50;;;;;;;15.34;75.93;93794.38;5003960;28;20018;-77
2022/07/10 04:25:37;;;;;;;14.93;7.00;;;;;;;15.31;75.70;93797.78;5003981;28;20022;-77
2022/07/10 04:28:03;;;;;;;12.18;6.82;;;;;;;15.31;75.22;93801.22;5003945;28;20045;-77
2022/07/10 04:30:28;;;;;;;12.90;6.38;;;;;;;15.41;74.84;93789.22;5003794;28;20028;-77
2022/07/10 04:32:53;;;;;;;10.13;5.88;;;;;;;15.36;74.24;93789.44;5003742;28;20018;-77
2022/07/10 04:35:19;;;;;;;11.60;6.75;;;;;;;15.45;73.85;93788.16;5003823;28;20369;-76
2022/07/10 04:37:44;;;;;;;9.15;6.13;;;;;;;15.55;73.84;93794.13;5003787;28;20440;-76
2022/07/10 04:40:11;;;;;;;7.07;5.45;;;;;;;15.60;73.75;93791.22;5003392;28;20105;-76
2022/07/10 04:42:36;;;;;;;9.85;5.90;;;;;;;15.61;73.23;93785.50;5003526;28;20033;-76
2022/07/10 04:45:02;;;;;;;7.72;5.85;;;;;;;15.67;73.33;93791.38;5003684;28;20085;-76
2022/07/10 04:47:27;;;;;;;7.78;5.53;;;;;;;15.72;72.71;93793.03;5003878;28;20029;-76
2022/07/10 04:49:52;;;;;;;14.13;6.47;;;;;;;15.75;73.10;93787.78;5003813;28;20066;-76
2022/07/10 04:52:18;;;;;;;9.60;6.45;;;;;;;15.78;73.20;93795.16;5003415;28;20022;-76
2022/07/10 04:54:44;;;;;;;8.88;6.22;;;;;;;15.93;72.03;93792.78;5003514;28;20270;-76
2022/07/10 04:57:09;;;;;;;12.85;5.70;;;;;;;15.98;71.79;93795.22;5003364;28;20037;-76
2022/07/10 04:59:35;;;;;;;8.00;6.20;;;;;;;16.09;72.27;93787.41;5003369;28;20312;-76
2022/07/10 05:02:00;;;;;;;9.93;6.13;;;;;;;16.16;71.07;93791.03;5003237;28;20029;-76
2022/07/10 05:04:25;;;;;;;9.40;5.60;;;;;;;16.17;70.97;93791.81;5003666;28;20022;-76
2022/07/10 05:06:51;;;;;;;8.13;5.68;;;;;;;16.29;70.54;93790.94;5003348;28;20018;-75
2022/07/10 05:09:19;;;;;;;10.15;6.50;;;;;;;16.33;71.85;93794.47;5003269;28;20081;-75
2022/07/10 05:11:45;;;;;;;8.48;5.50;;;;;;;16.35;69.95;93782.25;5003139;28;20022;-75
2022/07/10 05:14:10;;;;;;;8.45;5.63;;;;;;;16.43;70.36;93789.34;5003345;28;20018;-76
2022/07/10 05:16:36;;;;;;;8.05;5.40;;;;;;;16.52;70.91;93786.44;5003285;28;20033;-75
2022/07/10 05:19:01;;;;;;;8.45;5.07;;;;;;;16.66;72.13;93788.66;5003192;28;20121;-76
2022/07/10 05:21:27;;;;;;;8.35;5.40;;;;;;;16.80;68.89;93783.56;5003088;28;20033;-84
2022/07/10 05:23:52;;;;;;;6.30;4.45;;;;;;;16.86;68.80;93783.31;5006872;28;20026;-82
2022/07/10 05:26:18;;;;;;;8.13;5.25;;;;;;;16.86;68.10;93780.63;5007358;28;20030;-81
2022/07/10 05:28:43;;;;;;;7.85;4.85;;;;;;;16.88;67.76;93787.22;5007388;28;20300;-84
2022/07/10 05:31:09;;;;;;;7.07;4.70;;;;;;;16.96;67.62;93788.91;5007133;28;20014;-88
2022/07/10 05:33:34;;;;;;;8.27;5.40;;;;;;;16.88;66.94;93781.06;5007295;28;20018;-82
2022/07/10 05:36:00;;;;;;;8.15;4.50;;;;;;;16.93;66.92;93783.44;5006934;28;20094;-82
2022/07/10 05:38:25;;;;;;;6.68;4.85;;;;;;;17.00;67.05;93781.69;5006887;28;20019;-83
2022/07/10 05:40:53;;;;;;;7.72;5.38;;;;;;;17.00;67.35;93780.91;5006713;28;20340;-84
2022/07/10 05:43:18;;;;;;;10.98;5.40;;;;;;;17.11;67.91;93773.78;5006982;28;20320;-83
2022/07/10 05:45:43;;;;;;;6.55;4.97;;;;;;;17.26;66.97;93780.25;5006730;28;20022;-84
2022/07/10 05:48:10;;;;;;;7.15;4.35;;;;;;;17.39;67.72;93789.72;5006538;28;20094;-82
2022/07/10 05:50:35;;;;;;;13.65;5.43;;;;;;;17.51;66.26;93774.53;5006784;28;20049;-75
2022/07/10 05:53:01;;;;;;;11.95;5.30;;;;;;;17.44;66.37;93770.56;5006693;28;20029;-76
2022/07/10 05:55:26;;;;;;;10.18;4.72;;;;;;;17.50;65.77;93779.13;5006673;28;20041;-75
2022/07/10 05:57:54;;;;;;;8.82;4.30;;;;;;;17.51;64.67;93780.69;5006860;28;20076;-77
2022/07/10 06:00:20;;;;;;;6.20;4.50;;;;;;;17.52;65.75;93776.06;5006442;28;20034;-78
2022/07/10 06:02:45;;;;;;;8.82;4.32;;;;;;;17.47;64.93;93793.31;5006573;28;20209;-79
2022/07/10 06:05:10;;;;;;;9.30;4.65;;;;;;;17.45;66.17;93785.59;5006356;28;20030;-82
2022/07/10 06:07:36;;;;;;;5.55;4.63;;;;;;;17.59;65.11;93789.69;5006590;28;20225;-80
2022/07/10 06:10:04;;;;;;;8.93;5.20;;;;;;;17.60;64.95;93780.44;5006369;28;20026;-81
2022/07/10 06:12:29;;;;;;;5.78;4.60;;;;;;;17.73;65.47;93778.38;5006312;28;20026;-81
2022/07/10 06:14:55;;;;;;;6.88;4.25;;;;;;;17.95;65.06;93768.72;5006213;28;20399;-81
2022/07/10 06:17:21;;;;;;;6.97;3.80;;;;;;;18.08;62.17;93775.47;5006137;28;20044;-75
2022/07/10 06:19:46;;;;;;;6.82;3.58;;;;;;;18.07;61.17;93783.91;5006106;28;20073;-75
2022/07/10 06:22:30;;;;;;;5.05;3.65;;;;;;;18.05;62.05;93773.50;5006011;28;20331;-80
2022/07/10 06:24:56;;;;;;;6.38;3.85;;;;;;;17.97;61.42;93766.44;5006350;28;20030;-79
2022/07/10 06:27:22;;;;;;;7.20;3.65;;;;;;;17.82;60.50;93771.56;5006074;28;20137;-80
2022/07/10 06:29:47;;;;;;;5.78;3.75;;;;;;;17.82;62.00;93778.88;5006041;28;20053;-80
2022/07/10 06:32:13;;;;;;;6.68;4.25;;;;;;;18.02;61.53;93780.38;5006109;28;20033;-81
2022/07/10 06:34:38;;;;;;;4.78;3.45;;;;;;;18.10;61.99;93781.28;5005540;28;20081;-83
2022/07/10 06:37:04;;;;;;;5.72;3.45;;;;;;;18.14;61.13;93776.72;5004673;28;20030;-81
2022/07/10 06:39:35;;;;;;;7.60;3.45;;;;;;;18.30;60.27;93773.88;5005690;28;20117;-80
2022/07/10 06:42:03;;;;;;;8.25;3.42;;;;;;;18.27;60.71;93776.50;5005639;28;20050;-82
2022/07/10 06:44:28;;;;;;;6.38;3.83;;;;;;;18.27;59.88;93776.50;5005804;28;20037;-85
2022/07/10 06:49:40;;;;;;;8.27;3.53;;;;;;;18.19;59.83;93775.63;4994964;28;20033;-81
2022/07/10 06:52:06;;;;;;;4.45;2.92;;;;;;;18.21;59.49;93765.25;5005714;28;20068;-82
2022/07/10 06:54:32;;;;;;;8.68;3.70;;;;;;;18.22;59.44;93780.31;5005496;28;20264;-80
2022/07/10 06:56:58;;;;;;;7.45;3.72;;;;;;;18.25;59.81;93769.53;5005506;28;20026;-68
2022/07/10 06:59:24;;;;;;;8.40;3.67;;;;;;;18.31;60.11;93766.56;5005574;28;20082;-68
2022/07/10 07:01:49;;;;;;;9.02;3.65;;;;;;;18.33;60.00;93769.66;5005242;28;20077;-69
2022/07/10 07:04:14;;;;;;;8.35;3.58;;;;;;;18.39;60.51;93774.38;5005216;28;20317;-69
2022/07/10 07:06:40;;;;;;;9.10;3.65;;;;;;;18.48;62.18;93771.44;5005255;28;20022;-70
2022/07/10 07:09:05;;;;;;;6.88;3.30;;;;;;;18.56;59.33;93767.69;5005276;28;20045;-68
2022/07/10 07:11:31;;;;;;;13.45;4.25;;;;;;;18.57;58.93;93763.81;5005284;28;20052;-69
2022/07/10 07:13:56;;;;;;;5.72;3.83;;;;;;;18.57;59.10;93766.53;5005487;28;20022;-73
2022/07/10 07:16:37;;;;;;;8.00;3.40;;;;;;;18.54;59.42;93764.56;5005251;28;20027;-72
2022/07/10 07:19:04;;;;;;;5.10;3.33;;;;;;;18.64;58.98;93773.94;5005321;28;20256;-72
2022/07/10 07:24:14;;;;;;;11.50;3.92;;;;;;;18.76;58.18;93770.22;5005104;28;20029;-72
2022/07/10 07:26:39;;;;;;;4.03;2.80;;;;;;;18.80;58.61;93773.78;5004876;28;20025;-76
2022/07/10 07:29:05;;;;;;;8.50;3.13;;;;;;;18.79;58.52;93766.84;5005109;28;20018;-76
2022/07/10 07:31:30;;;;;;;9.95;2.85;;;;;;;18.79;59.28;93767.63;5005129;28;20018;-78
2022/07/10 07:33:57;;;;;;;5.35;3.08;;;;;;;18.83;59.28;93775.75;5005223;28;20018;-77
2022/07/10 07:36:22;;;;;;;3.90;2.95;;;;;;;18.85;58.53;93762.66;5005341;28;20025;-79
2022/07/10 07:38:47;;;;;;;6.88;3.08;;;;;;;18.87;59.04;93762.28;5004992;28;20105;-77
2022/07/10 07:41:13;;;;;;;11.57;3.55;;;;;;;18.96;58.58;93760.84;5004287;28;20072;-77
2022/07/10 07:43:38;;;;;;;3.95;3.10;;;;;;;18.95;59.67;93772.81;5004495;28;20018;-77
2022/07/10 07:46:04;;;;;;;10.27;3.20;;;;;;;19.04;57.05;93770.59;5003787;28;20089;-79
2022/07/10 07:48:29;;;;;;;9.00;3.05;;;;;;;19.10;57.55;93768.34;5004489;28;20345;-81
2022/07/10 07:50:55;;;;;;;5.50;2.95;;;;;;;19.16;55.83;93758.78;5004660;28;20018;-81
2022/07/10 07:53:20;;;;;;;7.82;3.00;;;;;;;19.25;56.06;93780.09;5004345;28;20041;-81
2022/07/10 07:55:45;;;;;;;4.55;2.83;;;;;;;19.24;56.62;93763.09;5004420;28;20021;-81
2022/07/10 07:58:11;;;;;;;4.75;2.70;;;;;;;19.30;57.97;93760.84;5004431;28;20279;-81
2022/07/10 08:00:37;;;;;;;6.15;2.80;;;;;;;19.36;55.36;93758.59;5004038;28;20050;-82
2022/07/10 08:03:03;;;;;;;6.90;2.55;;;;;;;19.47;55.29;93762.16;5004168;28;20022;-81
2022/07/10 08:05:29;;;;;;;9.05;3.40;;;;;;;19.59;53.48;93747.59;5004205;28;20097;-82
2022/07/10 08:08:01;;;;;;;5.22;3.00;;;;;;;19.67;53.75;93749.22;5004181;28;20056;-81
2022/07/10 08:10:27;;;;;;;4.68;3.28;;;;;;;19.79;53.83;93756.31;5003983;28;20022;-81
2022/07/10 08:12:53;;;;;;;9.25;2.58;;;;;;;19.84;51.95;93762.16;5003892;28;20086;-82
2022/07/10 08:15:22;;;;;;;3.13;2.28;;;;;;;19.90;52.42;93753.69;5003878;28;20041;-81
2022/07/10 08:17:49;;;;;;;9.30;2.50;;;;;;;19.95;53.14;93751.41;5003737;28;20042;-80
2022/07/10 08:20:14;;;;;;;5.55;2.83;;;;;;;19.81;52.43;93749.38;5003881;28;20027;-81
2022/07/10 08:22:41;;;;;;;4.13;2.55;;;;;;;19.90;53.43;93769.91;5003886;28;20030;-81
2022/07/10 08:25:08;;;;;;;9.73;2.42;;;;;;;20.00;53.05;93759.16;5003961;28;20019;-81
2022/07/10 08:27:33;;;;;;;4.90;2.45;;;;;;;20.13;52.08;93761.56;5003843;28;20030;-81
2022/07/10 08:29:59;;;;;;;9.85;2.67;;;;;;;20.15;50.41;93764.69;5003631;28;20309;-81
2022/07/10 08:32:26;;;;;;;6.97;2.95;;;;;;;20.21;51.30;93768.59;5003616;28;20022;-82
2022/07/10 08:34:51;;;;;;;5.30;2.50;;;;;;;20.08;52.07;93754.59;5003308;28;20076;-81
2022/07/10 08:37:16;;;;;;;8.05;2.80;;;;;;;20.15;52.14;93756.56;5003643;28;20018;-82
2022/07/10 08:39:42;;;;;;;5.75;2.13;;;;;;;20.29;51.97;93759.38;5002057;28;20026;-81
2022/07/10 08:42:10;;;;;;;6.03;1.92;;;;;;;20.36;50.88;93764.06;5003433;28;20034;-81
2022/07/10 08:44:35;;;;;;;4.88;2.15;;;;;;;20.49;50.08;93768.00;5002051;28;20186;-81
2022/07/10 08:47:02;;;;;;;7.15;2.80;;;;;;;20.72;50.17;93764.28;5003670;28;20045;-80
2022/07/10 08:49:30;;;;;;;3.42;2.25;;;;;;;20.92;46.54;93762.06;5002385;28;20149;-82
2022/07/10 08:52:08;;;;;;;4.88;2.30;;;;;;;20.95;48.43;93772.91;5003483;28;20034;-80
2022/07/10 08:54:35;;;;;;;4.07;2.30;;;;;;;20.98;48.34;93763.25;5003288;28;20245;-79
2022/07/10 08:57:02;;;;;;;4.20;2.03;;;;;;;20.87;48.36;93763.19;5003440;28;20110;-81
2022/07/10 08:59:29;;;;;;;5.78;2.75;;;;;;;20.90;48.96;93751.59;5003524;28;20018;-80
2022/07/10 09:01:55;;;;;;;7.68;2.38;;;;;;;20.78;45.91;93741.09;5003481;28;20156;-81
2022/07/10 09:04:25;;;;;;;7.93;2.25;;;;;;;20.81;49.56;93748.47;5003361;28;20026;-81
2022/07/10 09:06:52;;;;;;;8.82;2.50;;;;;;;20.80;48.54;93739.56;5003216;28;20093;-78
2022/07/10 09:09:17;;;;;;;5.20;2.10;;;;;;;20.94;47.82;93755.09;5002995;28;20061;-83
2022/07/10 09:11:43;;;;;;;8.15;2.60;;;;;;;21.00;47.11;93753.59;5003234;28;20308;-83
2022/07/10 09:14:11;;;;;;;5.93;2.38;;;;;;;21.13;47.64;93753.25;5003060;28;20037;-82
2022/07/10 09:16:42;;;;;;;5.22;2.08;;;;;;;21.24;47.86;93759.47;5002866;28;20033;-82
2022/07/10 09:19:23;;;;;;;3.42;2.40;;;;;;;21.33;48.52;93757.16;5003111;28;20022;-82
2022/07/10 09:21:51;;;;;;;5.25;2.80;;;;;;;21.46;47.07;93746.00;5003136;28;20042;-83
2022/07/10 09:24:19;;;;;;;6.05;2.20;;;;;;;21.57;47.99;93735.91;5003095;28;20022;-82
2022/07/10 09:26:54;;;;;;;5.93;2.17;;;;;;;21.57;45.24;93733.97;5003224;28;20117;-82
2022/07/10 09:29:19;;;;;;;7.97;2.65;;;;;;;21.71;48.45;93744.06;5002959;28;20101;-82
2022/07/10 09:31:48;;;;;;;9.07;2.92;;;;;;;21.73;46.39;93738.25;5002799;28;20224;-81
2022/07/10 09:34:14;;;;;;;18.42;2.55;;;;;;;21.88;46.98;93739.03;5002949;28;20044;-81
2022/07/10 09:36:39;;;;;;;3.95;2.05;;;;;;;22.07;47.13;93735.94;5003010;28;20049;-81
2022/07/10 09:39:05;;;;;;;4.72;2.25;;;;;;;22.23;45.77;93728.19;5002871;28;20022;-82
2022/07/10 09:41:31;;;;;;;3.58;2.28;;;;;;;22.30;46.08;93732.06;5001680;28;20050;-82
2022/07/10 09:44:00;;;;;;;5.32;2.38;;;;;;;22.21;43.61;93735.16;5001912;28;20022;-82
2022/07/10 09:46:32;;;;;;;6.50;2.15;;;;;;;22.13;44.01;93723.53;5003109;28;20026;-85
2022/07/10 09:49:07;;;;;;;4.13;3.00;;;;;;;22.15;45.64;93737.47;5003727;28;20022;-90
2022/07/10 09:51:44;;;;;;;4.72;2.08;;;;;;;22.03;47.25;93727.78;5003183;28;20260;-83
2022/07/10 09:54:10;;;;;;;3.47;1.90;;;;;;;21.84;46.83;93731.69;5001894;28;20378;-84
2022/07/10 09:56:48;;;;;;;4.85;2.95;;;;;;;21.89;47.74;93727.03;5003187;28;20011;-86
2022/07/10 09:59:17;;;;;;;10.40;2.25;;;;;;;21.96;47.49;93722.38;5002965;28;20213;-85
2022/07/10 10:01:51;;;;;;;4.15;1.77;;;;;;;22.14;45.61;93729.72;5002879;28;20080;-83
2022/07/10 10:04:19;;;;;;;3.67;2.10;;;;;;;22.10;45.62;93718.09;5003144;28;20026;-84
2022/07/10 10:06:56;;;;;;;5.72;2.00;;;;;;;22.24;46.27;93723.53;5003099;28;20038;-76
2022/07/10 10:09:25;;;;;;;7.45;1.88;;;;;;;22.37;44.28;93726.63;5005456;28;20331;-83
2022/07/10 10:11:59;;;;;;;3.03;1.95;;;;;;;22.36;44.67;93719.63;5006671;28;20106;-84
2022/07/10 10:14:27;;;;;;;6.03;2.17;;;;;;;22.17;44.02;93727.00;5005612;28;20216;-82
2022/07/10 10:16:55;;;;;;;3.55;2.17;;;;;;;22.34;44.84;93721.97;5006467;28;20193;-82
2022/07/10 10:22:08;;;;;;;6.78;2.05;;;;;;;22.47;43.03;93714.19;5006269;28;20045;-80
2022/07/10 10:24:34;;;;;;;3.33;1.50;;;;;;;22.43;44.01;93714.22;5005488;28;20068;-79
2022/07/10 10:27:01;;;;;;;3.08;1.85;;;;;;;22.55;43.37;93707.56;5004252;28;20041;-81
2022/07/10 10:29:27;;;;;;;2.95;2.35;;;;;;;22.68;44.89;93713.34;5004460;28;20251;-79
2022/07/10 10:31:53;;;;;;;2.50;1.35;;;;;;;22.70;43.36;93713.75;5004223;28;20072;-79
2022/07/10 10:34:42;;;;;;;3.35;2.10;;;;;;;22.62;42.66;93707.53;5003248;28;20057;-79
2022/07/10 10:37:40;;;;;;;5.75;1.75;;;;;;;22.53;44.20;93710.69;5004916;28;20041;-80
2022/07/10 10:40:08;;;;;;;7.15;1.98;;;;;;;22.37;43.76;93694.81;5004631;28;20052;-80
2022/07/10 10:42:38;;;;;;;4.53;2.28;;;;;;;22.31;46.72;93711.88;5004843;28;20212;-80
2022/07/10 10:45:23;;;;;;;6.20;1.95;;;;;;;22.32;44.73;93708.78;5005802;28;20033;-80
2022/07/10 10:48:08;;;;;;;5.80;1.75;;;;;;;22.22;44.24;93707.59;5005821;28;20026;-80
2022/07/10 10:50:40;;;;;;;5.90;2.22;;;;;;;22.16;44.68;93703.72;5005670;28;20033;-80
2022/07/10 10:53:15;;;;;;;3.65;1.50;;;;;;;22.10;44.38;93704.53;5005948;28;20070;-80
2022/07/10 10:56:03;;;;;;;10.85;1.95;;;;;;;22.14;45.17;93708.78;5005708;28;20053;-80
2022/07/10 10:58:39;;;;;;;7.60;2.05;;;;;;;22.26;45.97;93696.00;5005506;28;20056;-80
2022/07/10 11:01:25;;;;;;;4.10;2.38;;;;;;;22.34;45.94;93701.00;5005527;28;20050;-80
2022/07/10 11:04:09;;;;;;;4.13;1.90;;;;;;;22.38;44.59;93701.00;5005516;28;20037;-80
2022/07/10 11:06:40;;;;;;;4.03;2.33;;;;;;;22.21;45.03;93699.88;5005512;28;20218;-80
2022/07/10 11:09:22;;;;;;;6.10;2.22;;;;;;;22.09;44.98;93701.03;5005135;28;20030;-80
2022/07/10 11:12:07;;;;;;;2.90;1.80;;;;;;;22.12;45.73;93700.25;5005196;28;20220;-80
2022/07/10 11:14:36;;;;;;;5.25;1.70;;;;;;;22.20;46.57;93695.59;5005258;28;20264;-80
2022/07/10 11:17:02;;;;;;;4.45;1.80;;;;;;;22.28;46.58;93682.81;5005240;28;20028;-80
2022/07/10 11:19:29;;;;;;;4.88;1.40;;;;;;;22.43;45.06;93692.47;5004444;28;20106;-80
2022/07/10 11:22:10;;;;;;;5.28;1.95;;;;;;;22.44;43.21;93683.16;5004845;28;20025;-80
2022/07/10 11:24:48;;;;;;;6.88;1.75;;;;;;;22.49;42.47;93685.47;5004951;28;20268;-80
2022/07/10 11:27:36;;;;;;;2.47;1.50;;;;;;;22.56;43.61;93687.38;5004841;28;20093;-80
2022/07/10 11:30:02;;;;;;;2.90;1.70;;;;;;;22.58;43.82;93671.47;5004850;28;20020;-80
2022/07/10 11:32:28;;;;;;;5.05;1.80;;;;;;;22.57;42.46;93680.78;5004860;28;20018;-80
2022/07/10 11:34:55;;;;;;;9.95;1.85;;;;;;;22.71;43.20;93678.00;5003655;28;20029;-80
2022/07/10 11:37:22;;;;;;;5.22;1.75;;;;;;;22.75;45.95;93686.16;5004764;28;20022;-79
2022/07/10 11:39:47;;;;;;;2.83;1.83;;;;;;;22.45;44.47;93684.72;5004503;28;20022;-79